Time;durP1;ratioP1;P1;durP2;ratioP2;P2;SDS_P1;SDS_P2;PMS_P1;PMS_P2;Temp;Humidity;BMP_temperature;BMP_pressure;BME280_temperature;BME280_humidity;BME280_pressure;Samples;Min_cycle;Max_cycle;Signal;HPM_P1;HPM_P2
2022/10/12 00:01:05;;;;;;;;;4.33;3.00;;;;;23.83;41.55;102270.97;5075702;28;47088;-73
2022/10/12 00:03:32;;;;;;;;;2.00;2.00;;;;;23.82;41.48;102265.78;5075756;27;45174;-73
2022/10/12 00:06:01;;;;;;;;;5.67;4.00;;;;;23.82;41.04;102273.78;5075198;27;45556;-73
2022/10/12 00:08:26;;;;;;;;;2.00;2.00;;;;;23.81;41.25;102266.81;5075565;27;45441;-73
2022/10/12 00:10:52;;;;;;;;;4.00;2.00;;;;;23.80;41.53;102268.63;5075299;27;47289;-73
2022/10/12 00:13:18;;;;;;;;;2.00;2.00;;;;;23.73;41.28;102262.28;5075521;28;45349;-73
2022/10/12 00:15:43;;;;;;;;;5.00;3.00;;;;;23.80;40.84;102273.09;5075866;27;46841;-73
2022/10/12 00:18:08;;;;;;;;;3.00;3.00;;;;;23.79;41.42;102276.72;5075553;28;45346;-73
2022/10/12 00:20:34;;;;;;;;;2.00;2.00;;;;;23.79;40.77;102271.41;5074953;28;45413;-73
2022/10/12 00:22:59;;;;;;;;;2.00;2.00;;;;;23.78;40.87;102269.78;5075479;28;45514;-73
2022/10/12 00:25:25;;;;;;;;;2.67;2.67;;;;;23.78;41.08;102270.59;5067552;27;45364;-73
2022/10/12 00:27:50;;;;;;;;;2.33;2.33;;;;;23.77;41.20;102271.59;5055286;27;45366;-73
2022/10/12 00:30:16;;;;;;;;;3.67;3.67;;;;;23.76;41.14;102267.25;5054998;27;45367;-73
2022/10/12 00:32:41;;;;;;;;;4.67;2.00;;;;;23.76;41.13;102264.59;5055133;28;45326;-73
2022/10/12 00:35:07;;;;;;;;;2.67;2.00;;;;;23.75;41.03;102270.91;5054853;28;45323;-73
2022/10/12 00:37:32;;;;;;;;;2.00;2.00;;;;;23.65;41.00;102246.28;5060443;27;45441;-73
2022/10/12 00:39:57;;;;;;;;;3.00;1.67;;;;;23.74;41.30;102258.63;5054728;28;46284;-73
2022/10/12 00:42:22;;;;;;;;;2.00;2.00;;;;;23.76;40.66;102263.78;5057331;28;45518;-73
2022/10/12 00:44:50;;;;;;;;;2.00;2.00;;;;;23.77;40.86;102268.09;5058546;27;45436;-73
2022/10/12 00:47:24;;;;;;;;;2.33;2.00;;;;;23.77;40.93;102257.47;5058544;27;45617;-73
2022/10/12 00:50:15;;;;;;;;;2.33;2.33;;;;;23.69;40.83;102253.78;5058216;28;46664;-73
2022/10/12 00:53:07;;;;;;;;;3.67;3.00;;;;;23.77;40.62;102263.63;5053248;27;45486;-73
2022/10/12 00:55:46;;;;;;;;;4.33;2.00;;;;;23.71;40.52;102240.31;5053614;27;45412;-73
2022/10/12 00:58:12;;;;;;;;;3.67;3.67;;;;;23.76;40.54;102251.31;5058502;27;45423;-73
2022/10/12 01:00:39;;;;;;;;;3.00;3.00;;;;;23.69;40.80;102248.47;5057911;27;47207;-73
2022/10/12 01:03:07;;;;;;;;;3.67;2.67;;;;;23.76;40.85;102259.28;5058370;27;45297;-73
2022/10/12 01:05:33;;;;;;;;;6.67;2.33;;;;;23.72;40.78;102247.31;5057922;27;45343;-73
2022/10/12 01:07:59;;;;;;;;;3.00;3.00;;;;;23.73;40.83;102244.47;5062785;27;45284;-73
2022/10/12 01:10:25;;;;;;;;;3.00;2.00;;;;;23.66;40.84;102227.50;5063810;27;46153;-73
2022/10/12 01:12:51;;;;;;;;;2.67;2.67;;;;;23.72;40.82;102244.66;5078272;28;45308;-72
2022/10/12 01:15:16;;;;;;;;;3.67;3.67;;;;;23.71;40.39;102235.84;5078483;27;45326;-73
2022/10/12 01:18:01;;;;;;;;;1.33;1.33;;;;;23.71;40.76;102240.31;5078216;28;45355;-72
2022/10/12 01:20:48;;;;;;;;;2.33;2.33;;;;;23.72;40.96;102236.69;5078098;28;46625;-73
2022/10/12 01:23:14;;;;;;;;;2.00;2.00;;;;;23.72;40.56;102234.88;5077922;28;45338;-73
2022/10/12 01:25:48;;;;;;;;;2.67;2.67;;;;;23.70;40.86;102231.53;5068427;27;45319;-73
2022/10/12 01:28:36;;;;;;;;;2.00;2.00;;;;;23.71;40.48;102227.03;5075315;27;45323;-73
2022/10/12 01:31:15;;;;;;;;;4.67;2.00;;;;;23.70;40.63;102222.72;5078060;28;46169;-73
2022/10/12 01:33:47;;;;;;;;;3.00;3.00;;;;;23.70;40.84;102225.38;5077847;28;45258;-73
2022/10/12 01:36:23;;;;;;;;;2.00;2.00;;;;;23.70;40.73;102225.38;5093507;27;45253;-73
2022/10/12 01:39:00;;;;;;;;;2.67;2.00;;;;;23.69;40.84;102213.91;5063845;27;45521;-73
2022/10/12 01:41:38;;;;;;;;;5.00;3.33;;;;;23.61;40.72;102213.88;5077719;27;46244;-73
2022/10/12 01:44:04;;;;;;;;;3.67;2.00;;;;;23.68;40.97;102219.41;5070435;27;45452;-73
2022/10/12 01:46:29;;;;;;;;;1.33;1.00;;;;;23.67;40.61;102218.56;5071405;28;45414;-73
2022/10/12 01:48:58;;;;;;;;;2.00;1.00;;;;;23.59;40.80;102211.38;5077243;28;45370;-73
2022/10/12 01:51:34;;;;;;;;;2.00;2.00;;;;;23.66;40.25;102211.56;5077796;28;45452;-73
2022/10/12 01:54:29;;;;;;;;;1.67;1.67;;;;;23.67;40.63;102215.06;5077181;28;45319;-73
2022/10/12 01:56:54;;;;;;;;;3.67;3.33;;;;;23.67;40.75;102210.59;5077762;28;45248;-73
2022/10/12 01:59:30;;;;;;;;;3.00;2.00;;;;;23.67;40.42;102215.91;5077881;28;45266;-73
2022/10/12 02:02:36;;;;;;;;;4.00;3.00;;;;;23.61;40.59;102209.38;5077137;28;45764;-73
2022/10/12 02:05:20;;;;;;;;;4.33;3.00;;;;;23.58;40.36;102198.25;5077475;27;45240;-73
2022/10/12 02:07:56;;;;;;;;;4.33;3.00;;;;;23.64;40.41;102205.59;5077624;27;45399;-73
2022/10/12 02:10:32;;;;;;;;;2.33;2.33;;;;;23.68;40.50;102214.09;5077682;27;45417;-73
2022/10/12 02:13:01;;;;;;;;;2.00;2.00;;;;;23.68;40.76;102206.13;5077365;27;46251;-73
2022/10/12 02:15:29;;;;;;;;;2.67;2.67;;;;;23.68;40.68;102217.56;5077372;27;45334;-73
2022/10/12 02:17:56;;;;;;;;;2.00;2.00;;;;;23.65;40.40;102209.09;5062989;28;45202;-73
2022/10/12 02:20:23;;;;;;;;;3.67;2.00;;;;;23.67;40.58;102213.25;5077339;28;45271;-73
2022/10/12 02:22:51;;;;;;;;;2.67;2.00;;;;;23.65;40.48;102209.09;5076932;28;45453;-73
2022/10/12 02:25:20;;;;;;;;;2.00;1.00;;;;;23.65;40.50;102201.13;5070197;27;45418;-73
2022/10/12 02:27:54;;;;;;;;;1.33;1.33;;;;;23.61;40.60;102212.06;5057205;27;45455;-73
2022/10/12 02:30:19;;;;;;;;;2.00;2.00;;;;;23.58;40.08;102200.91;5062983;27;45284;-73
2022/10/12 02:33:03;;;;;;;;;2.67;2.67;;;;;23.65;40.08;102212.59;5076927;27;45448;-73
2022/10/12 02:35:34;;;;;;;;;5.67;2.00;;;;;23.65;40.23;102209.09;5077204;28;45249;-73
2022/10/12 02:38:18;;;;;;;;;5.00;2.33;;;;;23.62;40.61;102205.75;5076992;28;45625;-73
2022/10/12 02:40:55;;;;;;;;;3.00;2.00;;;;;23.50;40.56;102183.09;5076777;28;45470;-73
2022/10/12 02:43:28;;;;;;;;;1.33;1.33;;;;;23.63;40.29;102204.75;5076585;28;45427;-73
2022/10/12 02:45:56;;;;;;;;;2.00;2.00;;;;;23.63;40.28;102191.47;5076536;27;45422;-73
2022/10/12 02:48:23;;;;;;;;;1.67;1.67;;;;;23.62;40.40;102197.78;5076986;28;45440;-73
2022/10/12 02:50:53;;;;;;;;;2.00;1.33;;;;;23.61;40.36;102188.13;5076869;28;45306;-73
2022/10/12 02:53:20;;;;;;;;;6.00;3.00;;;;;23.62;40.38;102197.78;5076740;28;46457;-73
2022/10/12 02:55:54;;;;;;;;;2.00;2.00;;;;;23.60;40.63;102191.78;5076584;28;45449;-73
2022/10/12 02:58:20;;;;;;;;;2.00;2.00;;;;;23.60;40.21;102181.16;5077007;28;45474;-73
2022/10/12 03:00:45;;;;;;;;;2.00;2.00;;;;;23.61;40.60;102184.66;5076420;28;45284;-73
2022/10/12 03:03:11;;;;;;;;;2.00;1.33;;;;;23.61;40.69;102184.66;5076418;28;46271;-73
2022/10/12 03:05:36;;;;;;;;;4.00;3.00;;;;;23.62;40.63;102183.66;5075896;28;45442;-73
2022/10/12 03:08:02;;;;;;;;;2.00;2.00;;;;;23.61;40.10;102180.16;5076641;27;45426;-73
2022/10/12 03:10:27;;;;;;;;;2.00;2.00;;;;;23.61;40.58;102163.38;5076602;27;45332;-73
2022/10/12 03:12:53;;;;;;;;;2.33;2.33;;;;;23.57;40.00;102156.75;5076467;27;45347;-73
2022/10/12 03:15:18;;;;;;;;;2.00;2.00;;;;;23.61;39.98;102166.03;5076054;28;45503;-73
2022/10/12 03:17:44;;;;;;;;;3.00;3.00;;;;;23.59;40.54;102155.59;5076883;28;45655;-74
2022/10/12 03:20:09;;;;;;;;;2.00;2.00;;;;;23.61;40.43;102155.41;5076307;28;45456;-73
2022/10/12 03:22:35;;;;;;;;;1.00;1.00;;;;;23.53;40.11;102140.28;5091980;27;48466;-73
2022/10/12 03:25:00;;;;;;;;;2.33;1.67;;;;;23.61;39.85;102152.75;5071865;28;45418;-73
2022/10/12 03:27:25;;;;;;;;;4.00;3.00;;;;;23.61;39.77;102152.75;5055997;28;45249;-72
2022/10/12 03:29:51;;;;;;;;;2.67;2.67;;;;;23.55;40.26;102148.09;5055335;28;45464;-72
2022/10/12 03:32:17;;;;;;;;;2.00;2.00;;;;;23.61;39.69;102164.22;5064537;28;45334;-73
2022/10/12 03:34:42;;;;;;;;;2.00;2.00;;;;;23.62;40.03;102159.75;5061479;27;45407;-73
2022/10/12 03:37:07;;;;;;;;;1.67;1.67;;;;;23.62;39.85;102154.44;5061421;28;45340;-73
2022/10/12 03:39:33;;;;;;;;;2.00;2.00;;;;;23.60;39.76;102154.59;5055869;27;45419;-73
2022/10/12 03:41:58;;;;;;;;;3.50;3.50;;;;;23.60;39.82;102157.25;5069862;28;46052;-73
2022/10/12 03:44:24;;;;;;;;;2.33;2.00;;;;;23.50;40.17;102141.44;5055440;27;45352;-73
2022/10/12 03:46:49;;;;;;;;;3.00;2.00;;;;;23.59;40.04;102160.06;5072099;28;45431;-73
2022/10/12 03:49:14;;;;;;;;;2.67;2.67;;;;;23.59;40.11;102154.75;5076232;28;45326;-73
2022/10/12 03:51:39;;;;;;;;;4.00;3.00;;;;;23.58;39.66;102164.53;5075955;28;49286;-73
2022/10/12 03:54:05;;;;;;;;;2.00;2.00;;;;;23.59;39.92;102165.38;5075581;28;45336;-74
2022/10/12 03:56:30;;;;;;;;;4.67;2.33;;;;;23.59;39.60;102165.38;5076026;28;45406;-73
2022/10/12 03:58:55;;;;;;;;;2.00;2.00;;;;;23.59;39.73;102157.41;5087966;27;45384;-73
2022/10/12 04:01:21;;;;;;;;;2.00;2.00;;;;;23.48;40.15;102153.16;5065219;28;45415;-74
2022/10/12 04:03:46;;;;;;;;;2.67;1.33;;;;;23.58;39.90;102166.34;5075785;28;45376;-74
2022/10/12 04:06:11;;;;;;;;;2.00;2.00;;;;;23.58;40.19;102166.34;5075897;28;45570;-73
2022/10/12 04:08:37;;;;;;;;;2.00;2.00;;;;;23.57;40.23;102160.22;5075680;27;45360;-73
2022/10/12 04:11:02;;;;;;;;;1.00;1.00;;;;;23.56;39.80;102158.56;5075777;27;45362;-73
2022/10/12 04:13:27;;;;;;;;;4.00;3.00;;;;;23.58;39.92;102163.69;5090813;27;45339;-73
2022/10/12 04:15:53;;;;;;;;;3.33;2.00;;;;;23.56;39.77;102161.22;5075494;27;45250;-73
2022/10/12 04:18:18;;;;;;;;;2.00;2.00;;;;;23.56;39.95;102163.03;5075791;28;45532;-73
2022/10/12 04:20:47;;;;;;;;;2.00;2.00;;;;;23.56;40.06;102161.22;5075099;28;45450;-74
2022/10/12 04:23:12;;;;;;;;;3.00;2.00;;;;;23.55;39.65;102162.19;5075359;28;45358;-71
2022/10/12 04:25:38;;;;;;;;;2.33;1.00;;;;;23.46;39.78;102144.53;5065662;28;45363;-74
2022/10/12 04:28:03;;;;;;;;;3.00;3.00;;;;;23.52;40.22;102150.06;5054810;27;45441;-74
2022/10/12 04:30:29;;;;;;;;;2.00;2.00;;;;;23.45;40.05;102141.03;5054869;28;46891;-74
2022/10/12 04:32:54;;;;;;;;;3.33;2.00;;;;;23.49;40.05;102144.22;5055147;27;45477;-73
2022/10/12 04:35:20;;;;;;;;;4.00;2.00;;;;;23.51;39.53;102159.03;5055075;27;45502;-74
2022/10/12 04:37:45;;;;;;;;;2.00;2.00;;;;;23.54;39.51;102162.38;5060519;28;45460;-73
2022/10/12 04:40:10;;;;;;;;;2.67;1.67;;;;;23.54;39.66;102162.38;5054672;27;49843;-74
2022/10/12 04:42:36;;;;;;;;;1.67;1.67;;;;;23.51;39.78;102159.03;5054468;27;45450;-73
2022/10/12 04:45:01;;;;;;;;;2.00;2.00;;;;;23.54;39.88;102171.16;5055133;27;45359;-73
2022/10/12 04:47:26;;;;;;;;;1.67;1.67;;;;;23.55;39.64;102166.69;5055189;28;45356;-73
2022/10/12 04:49:52;;;;;;;;;2.00;2.00;;;;;23.55;39.44;102174.66;5054900;28;46122;-73
2022/10/12 04:52:17;;;;;;;;;3.00;3.00;;;;;23.55;39.61;102174.66;5055003;28;45443;-73
2022/10/12 04:54:42;;;;;;;;;2.00;2.00;;;;;23.55;40.14;102172.00;5054875;28;45423;-73
2022/10/12 04:57:07;;;;;;;;;1.00;1.00;;;;;23.54;40.04;102170.34;5054665;28;45396;-74
2022/10/12 04:59:33;;;;;;;;;3.00;2.00;;;;;23.54;39.99;102160.53;5063726;27;46268;-73
2022/10/12 05:01:58;;;;;;;;;1.00;1.00;;;;;23.47;39.73;102160.28;5059887;27;45457;-73
2022/10/12 05:04:23;;;;;;;;;2.00;2.00;;;;;23.55;39.53;102166.69;5055097;28;45482;-73
2022/10/12 05:06:49;;;;;;;;;3.33;2.00;;;;;23.55;39.56;102174.66;5053501;28;45373;-73
2022/10/12 05:09:15;;;;;;;;;1.00;1.00;;;;;23.54;39.65;102171.16;5068648;27;45992;-73
2022/10/12 05:11:40;;;;;;;;;2.33;2.33;;;;;23.54;39.69;102168.50;5054640;28;45311;-73
2022/10/12 05:14:05;;;;;;;;;3.00;1.67;;;;;23.54;39.62;102165.03;5054687;27;45266;-74
2022/10/12 05:16:30;;;;;;;;;1.67;1.67;;;;;23.53;39.64;102172.16;5063317;28;45565;-73
2022/10/12 05:18:56;;;;;;;;;2.00;2.00;;;;;23.52;39.50;102175.81;5074012;28;47823;-73
2022/10/12 05:21:21;;;;;;;;;1.00;1.00;;;;;23.52;39.57;102178.47;5054027;28;54630;-73
2022/10/12 05:23:50;;;;;;;;;0.00;0.00;;;;;23.52;39.74;102181.94;5063085;28;45317;-74
2022/10/12 05:26:16;;;;;;;;;2.00;2.00;;;;;23.50;39.64;102181.28;5059310;27;45379;-73
2022/10/12 05:28:41;;;;;;;;;2.67;1.00;;;;;23.51;39.74;102182.94;5056856;27;46016;-74
2022/10/12 05:31:07;;;;;;;;;2.00;2.00;;;;;23.51;40.11;102184.75;5057684;27;51922;-73
2022/10/12 05:33:32;;;;;;;;;2.00;0.67;;;;;23.49;39.63;102187.59;5062840;27;45500;-73
2022/10/12 05:35:58;;;;;;;;;1.00;1.00;;;;;23.51;39.42;102198.88;5078029;28;45329;-73
2022/10/12 05:38:23;;;;;;;;;3.33;2.33;;;;;23.51;39.87;102187.41;5078128;28;45299;-73
2022/10/12 05:40:48;;;;;;;;;2.00;2.00;;;;;23.39;39.65;102171.72;5077538;28;45396;-73
2022/10/12 05:43:14;;;;;;;;;2.00;2.00;;;;;23.46;39.51;102187.03;5077982;28;45398;-73
2022/10/12 05:45:39;;;;;;;;;3.00;2.00;;;;;23.42;39.86;102172.41;5078041;28;45493;-73
2022/10/12 05:48:05;;;;;;;;;2.00;2.00;;;;;23.49;39.89;102195.56;5077753;28;45347;-73
2022/10/12 05:50:30;;;;;;;;;2.00;2.00;;;;;23.49;39.21;102189.38;5077723;28;45360;-73
2022/10/12 05:52:56;;;;;;;;;2.67;2.00;;;;;23.48;39.88;102201.81;5078091;27;45437;-73
2022/10/12 05:55:21;;;;;;;;;2.00;2.00;;;;;23.48;39.24;102198.31;5077412;28;45372;-73
2022/10/12 05:57:48;;;;;;;;;2.00;1.00;;;;;23.49;39.24;102202.66;5077607;27;45240;-73
2022/10/12 06:00:14;;;;;;;;;1.00;1.00;;;;;23.48;39.39;102200.97;5077717;28;45406;-74
2022/10/12 06:02:40;;;;;;;;;2.00;2.00;;;;;23.47;39.43;102197.47;5077694;28;45632;-73
2022/10/12 06:05:05;;;;;;;;;2.67;2.00;;;;;23.47;39.24;102194.81;5077759;28;45487;-73
2022/10/12 06:07:31;;;;;;;;;2.00;2.00;;;;;23.47;39.31;102200.13;5075905;27;45874;-73
2022/10/12 06:09:56;;;;;;;;;3.00;3.00;;;;;23.45;39.58;102194.16;5077196;27;45489;-73
2022/10/12 06:12:22;;;;;;;;;2.33;2.33;;;;;23.19;39.49;102152.50;5077674;28;45470;-73
2022/10/12 06:14:48;;;;;;;;;3.00;2.00;;;;;23.47;39.61;102192.16;5077704;28;45601;-73
2022/10/12 06:17:14;;;;;;;;;1.67;1.67;;;;;23.48;39.72;102191.19;5077134;28;46939;-73
2022/10/12 06:19:39;;;;;;;;;2.00;2.00;;;;;23.48;39.13;102193.84;5076074;28;45997;-73
2022/10/12 06:22:04;;;;;;;;;2.67;2.00;;;;;23.47;39.35;102192.16;5077480;28;45287;-74
2022/10/12 06:24:30;;;;;;;;;2.33;2.33;;;;;23.48;39.12;102193.00;5076480;27;45430;-74
2022/10/12 06:26:55;;;;;;;;;1.67;1.67;;;;;23.48;39.15;102185.03;5057143;27;45919;-76
2022/10/12 06:29:22;;;;;;;;;3.00;2.00;;;;;23.47;39.12;102184.19;5057014;27;45429;-73
2022/10/12 06:31:49;;;;;;;;;2.00;2.00;;;;;23.48;39.66;102185.88;5056967;27;45401;-73
2022/10/12 06:34:14;;;;;;;;;3.33;3.33;;;;;23.33;39.25;102167.03;5060008;27;45522;-72
2022/10/12 06:36:39;;;;;;;;;1.67;1.67;;;;;23.49;39.46;102194.69;5061512;27;46014;-72
2022/10/12 06:39:05;;;;;;;;;3.00;2.00;;;;;23.48;39.10;102193.00;5056307;27;45413;-72
2022/10/12 06:41:30;;;;;;;;;1.00;1.00;;;;;23.47;39.59;102184.19;5066862;28;45652;-72
2022/10/12 06:43:55;;;;;;;;;3.00;3.00;;;;;23.47;39.24;102189.50;5056528;27;45376;-72
2022/10/12 06:46:21;;;;;;;;;2.00;2.00;;;;;23.48;39.52;102179.72;5060021;27;45383;-73
2022/10/12 06:48:46;;;;;;;;;3.00;2.67;;;;;23.49;39.82;102192.03;5062657;27;45533;-73
2022/10/12 06:51:11;;;;;;;;;2.00;2.00;;;;;23.40;39.84;102170.72;5056280;28;45320;-73
2022/10/12 06:53:36;;;;;;;;;1.00;1.00;;;;;23.48;39.76;102180.56;5070506;27;45547;-73
2022/10/12 06:56:06;;;;;;;;;2.00;2.00;;;;;23.49;39.72;102179.63;5056207;27;47171;-72
2022/10/12 06:58:32;;;;;;;;;2.00;2.00;;;;;23.50;39.70;102181.28;5056321;27;45491;-73
2022/10/12 07:01:00;;;;;;;;;4.00;2.33;;;;;23.46;40.09;102179.91;5056568;27;45390;-75
2022/10/12 07:03:25;;;;;;;;;3.33;3.00;;;;;23.49;39.57;102187.59;5056527;27;45580;-74
2022/10/12 07:05:50;;;;;;;;;2.00;2.00;;;;;23.53;39.82;102190.75;5060712;27;49501;-73
2022/10/12 07:08:16;;;;;;;;;2.00;2.00;;;;;23.47;40.00;102178.88;5070798;27;45473;-73
2022/10/12 07:10:41;;;;;;;;;2.00;2.00;;;;;23.57;39.83;102191.28;5071859;27;45438;-73
2022/10/12 07:13:07;;;;;;;;;2.00;2.00;;;;;23.57;39.50;102193.94;5072291;28;45580;-73
2022/10/12 07:15:32;;;;;;;;;3.00;2.00;;;;;23.57;40.10;102197.44;5069909;27;49667;-74
2022/10/12 07:17:57;;;;;;;;;3.00;2.00;;;;;23.58;39.88;102196.41;5063467;27;45363;-73
2022/10/12 07:20:23;;;;;;;;;2.67;2.67;;;;;23.59;40.04;102200.75;5071251;28;45341;-73
2022/10/12 07:22:48;;;;;;;;;2.00;1.67;;;;;23.50;39.66;102185.75;5069867;27;45301;-73
2022/10/12 07:25:13;;;;;;;;;2.00;2.00;;;;;23.62;39.89;102204.91;5075382;27;45411;-74
2022/10/12 07:27:39;;;;;;;;;1.00;1.00;;;;;23.65;39.51;102195.78;5075398;28;45353;-73
2022/10/12 07:30:04;;;;;;;;;1.00;1.00;;;;;23.61;39.53;102185.47;5070519;27;45518;-74
2022/10/12 07:32:30;;;;;;;;;2.67;2.00;;;;;23.70;39.32;102191.69;5068619;27;45320;-73
2022/10/12 07:34:55;;;;;;;;;2.00;2.00;;;;;23.76;39.65;102200.81;5065035;27;46277;-73
2022/10/12 07:37:21;;;;;;;;;3.67;2.67;;;;;23.75;39.29;102188.53;5066687;27;45348;-73
2022/10/12 07:39:46;;;;;;;;;2.33;1.00;;;;;23.87;39.44;102206.84;5072716;27;45385;-74
2022/10/12 07:42:11;;;;;;;;;1.00;1.00;;;;;23.88;39.57;102204.03;5066537;27;45461;-72
2022/10/12 07:44:37;;;;;;;;;2.00;2.00;;;;;23.95;39.22;102215.69;5068626;27;45885;-71
2022/10/12 07:47:02;;;;;;;;;2.00;2.00;;;;;23.89;39.36;102200.38;5069196;27;45409;-74
2022/10/12 07:49:28;;;;;;;;;1.33;1.33;;;;;23.96;39.09;102208.56;5070437;27;45321;-74
2022/10/12 07:51:53;;;;;;;;;3.67;2.00;;;;;24.02;39.42;102207.09;5069364;27;45455;-73
2022/10/12 07:54:19;;;;;;;;;1.33;1.33;;;;;24.12;39.41;102220.25;5065745;28;45359;-74
2022/10/12 07:56:45;;;;;;;;;3.00;2.00;;;;;24.20;39.33;102216.78;5071847;27;45514;-73
2022/10/12 07:59:10;;;;;;;;;2.00;2.00;;;;;24.27;39.02;102218.66;5063442;27;45314;-73
2022/10/12 08:01:36;;;;;;;;;2.00;2.00;;;;;24.35;38.70;102225.84;5069623;28;45400;-74
2022/10/12 08:04:01;;;;;;;;;2.00;2.00;;;;;24.43;38.95;102211.72;5064354;27;46944;-74
2022/10/12 08:06:30;;;;;;;;;5.00;4.00;;;;;24.49;38.68;102216.38;5065434;27;45327;-74
2022/10/12 08:08:57;;;;;;;;;3.00;3.00;;;;;24.55;38.66;102217.53;5065713;27;45364;-74
2022/10/12 08:11:22;;;;;;;;;2.00;2.00;;;;;24.58;38.60;102213.72;5055105;28;45421;-74
2022/10/12 08:13:47;;;;;;;;;1.00;1.00;;;;;24.59;38.75;102212.75;5055078;28;45593;-73
2022/10/12 08:16:16;;;;;;;;;3.33;3.00;;;;;24.55;38.92;102217.53;5056842;28;45654;-74
2022/10/12 08:18:43;;;;;;;;;2.33;2.33;;;;;24.63;38.74;102222.06;5054902;28;45777;-74
2022/10/12 08:21:10;;;;;;;;;2.00;2.00;;;;;24.63;38.81;102222.88;5064201;27;45451;-72
2022/10/12 08:23:36;;;;;;;;;3.00;3.00;;;;;24.64;38.42;102213.09;5061636;27;46299;-71
2022/10/12 08:26:02;;;;;;;;;4.33;3.00;;;;;24.61;38.54;102205.41;5061863;27;45435;-74
2022/10/12 08:28:27;;;;;;;;;2.00;2.00;;;;;24.59;38.59;102204.75;5055008;27;45884;-74
2022/10/12 08:30:53;;;;;;;;;3.00;3.00;;;;;24.57;38.68;102201.41;5054974;27;45264;-72
2022/10/12 08:33:19;;;;;;;;;2.00;2.00;;;;;24.51;38.67;102192.28;5062376;27;45435;-74
2022/10/12 08:35:46;;;;;;;;;3.67;3.33;;;;;24.47;38.66;102186.44;5055250;28;45288;-73
2022/10/12 08:38:12;;;;;;;;;3.33;2.33;;;;;24.46;38.67;102190.09;5074840;28;45288;-74
2022/10/12 08:41:01;;;;;;;;;5.00;2.00;;;;;24.49;39.03;102192.44;5074875;28;45447;-74
2022/10/12 08:43:46;;;;;;;;;3.00;3.00;;;;;24.49;38.54;102199.56;5074880;28;45911;-73
2022/10/12 08:46:12;;;;;;;;;2.00;2.00;;;;;24.47;38.71;102197.09;5074655;27;45432;-74
2022/10/12 08:49:06;;;;;;;;;3.00;3.00;;;;;24.46;38.54;102199.91;5074622;28;45512;-74
2022/10/12 08:51:39;;;;;;;;;2.00;2.00;;;;;24.43;38.90;102194.91;5074421;28;45370;-74
2022/10/12 08:54:13;;;;;;;;;6.00;4.00;;;;;24.28;38.79;102166.28;5074373;28;45368;-74
2022/10/12 08:56:40;;;;;;;;;2.67;2.67;;;;;24.40;38.96;102182.78;5074786;28;45485;-74
2022/10/12 08:59:12;;;;;;;;;5.67;3.00;;;;;24.38;38.92;102192.75;5074712;28;45389;-73
2022/10/12 09:01:50;;;;;;;;;2.00;2.00;;;;;24.37;39.14;102186.59;5074504;28;46039;-73
2022/10/12 09:04:27;;;;;;;;;5.00;3.33;;;;;24.36;39.36;102187.59;5077922;28;46380;-74
2022/10/12 09:06:58;;;;;;;;;3.67;2.00;;;;;24.35;39.19;102188.59;5077128;28;45375;-74
2022/10/12 09:10:01;;;;;;;;;2.00;2.00;;;;;24.34;39.11;102181.59;5077123;27;45532;-74
2022/10/12 09:12:49;;;;;;;;;2.67;2.67;;;;;24.34;39.28;102186.09;5078002;28;45532;-74
2022/10/12 09:15:21;;;;;;;;;4.67;2.00;;;;;24.33;39.12;102193.22;5077973;28;47143;-74
2022/10/12 09:17:53;;;;;;;;;2.00;2.00;;;;;24.34;39.37;102192.25;5077780;28;45367;-74
2022/10/12 09:20:27;;;;;;;;;2.67;1.67;;;;;24.34;39.10;102188.75;5077570;28;45328;-73
2022/10/12 09:22:58;;;;;;;;;4.00;3.00;;;;;24.34;39.36;102191.41;5077828;27;45407;-73
2022/10/12 09:25:25;;;;;;;;;4.00;2.67;;;;;24.34;39.46;102184.25;5070121;28;45295;-73
2022/10/12 09:27:52;;;;;;;;;3.00;2.33;;;;;24.33;39.36;102192.41;5057494;27;45361;-74
2022/10/12 09:30:19;;;;;;;;;3.00;3.00;;;;;24.32;38.97;102180.94;5057656;27;45395;-74
2022/10/12 09:33:12;;;;;;;;;5.00;3.00;;;;;24.32;39.16;102175.63;5063353;27;45360;-74
2022/10/12 09:35:39;;;;;;;;;5.00;3.67;;;;;24.33;39.21;102189.75;5057610;27;46253;-74
2022/10/12 09:38:05;;;;;;;;;5.00;3.00;;;;;24.29;39.49;102178.59;5062628;27;45359;-73
2022/10/12 09:40:34;;;;;;;;;3.00;3.00;;;;;24.30;39.05;102180.28;5063624;28;45313;-73
2022/10/12 09:43:01;;;;;;;;;4.00;4.00;;;;;24.01;39.36;102136.28;5077808;27;45442;-73
2022/10/12 09:45:31;;;;;;;;;4.00;3.00;;;;;24.29;39.30;102175.94;5076961;27;47226;-73
2022/10/12 09:48:09;;;;;;;;;4.00;3.00;;;;;24.28;39.12;102168.94;5077347;27;45497;-74
2022/10/12 09:50:46;;;;;;;;;4.00;3.00;;;;;24.27;39.24;102170.78;5077608;28;45336;-74
2022/10/12 09:53:17;;;;;;;;;3.00;2.00;;;;;24.15;39.52;102153.44;5077650;28;45400;-74
2022/10/12 09:55:52;;;;;;;;;4.00;3.00;;;;;24.26;39.35;102163.81;5077301;27;47133;-73
2022/10/12 09:58:20;;;;;;;;;5.33;4.00;;;;;24.25;39.58;102163.94;5077538;28;45470;-73
2022/10/12 10:01:15;;;;;;;;;3.67;3.67;;;;;24.24;39.67;102163.09;5076738;28;45502;-74
2022/10/12 10:03:41;;;;;;;;;4.00;3.00;;;;;24.24;39.39;102154.28;5077384;28;45474;-74
2022/10/12 10:06:06;;;;;;;;;4.00;4.00;;;;;24.23;39.47;102155.28;5076801;28;46057;-74
2022/10/12 10:08:43;;;;;;;;;2.33;1.33;;;;;24.20;39.17;102151.13;5077005;27;45406;-73
2022/10/12 10:11:15;;;;;;;;;2.00;2.00;;;;;24.11;39.59;102134.31;5063419;28;45366;-74
2022/10/12 10:13:47;;;;;;;;;2.00;2.00;;;;;24.20;39.40;102135.16;5076824;28;45404;-73
2022/10/12 10:16:13;;;;;;;;;6.00;3.00;;;;;24.20;39.61;102139.66;5062279;28;46451;-74
2022/10/12 10:18:47;;;;;;;;;2.00;2.00;;;;;24.19;39.40;102146.81;5076909;28;45371;-74
2022/10/12 10:21:16;;;;;;;;;1.67;1.67;;;;;24.18;39.38;102145.97;5076570;27;45500;-73
2022/10/12 10:23:52;;;;;;;;;4.00;4.00;;;;;24.19;39.46;102152.13;5077134;27;45439;-74
2022/10/12 10:26:20;;;;;;;;;5.00;3.00;;;;;24.19;39.34;102146.81;5076662;28;46408;-73
2022/10/12 10:28:48;;;;;;;;;3.00;3.00;;;;;24.16;39.44;102133.84;5076424;28;45461;-74
2022/10/12 10:31:20;;;;;;;;;3.33;3.33;;;;;23.96;39.53;102110.22;5076918;28;45438;-74
2022/10/12 10:34:08;;;;;;;;;3.33;3.33;;;;;24.18;39.74;102147.78;5076776;28;45580;-74
2022/10/12 10:36:39;;;;;;;;;3.00;3.00;;;;;24.13;39.32;102135.00;5076364;28;46556;-74
2022/10/12 10:39:14;;;;;;;;;5.00;4.00;;;;;24.03;39.70;102111.22;5076909;28;45423;-74
2022/10/12 10:41:41;;;;;;;;;3.00;3.00;;;;;24.17;39.26;102133.66;5076824;28;45375;-74
2022/10/12 10:44:34;;;;;;;;;3.00;3.00;;;;;24.15;39.57;102122.34;5075968;28;45418;-73
2022/10/12 10:47:09;;;;;;;;;4.33;2.67;;;;;24.16;39.61;102128.50;5075656;28;45325;-74
2022/10/12 10:49:40;;;;;;;;;9.50;9.25;;;;;24.16;37.74;102123.19;5060443;28;45376;-75
2022/10/12 10:52:17;;;;;;;;;7.33;6.00;;;;;24.12;39.02;102128.03;5063911;27;45462;-73
2022/10/12 10:54:44;;;;;;;;;6.00;4.00;;;;;24.12;39.39;102121.88;5056003;27;45562;-73
2022/10/12 10:57:16;;;;;;;;;5.67;4.67;;;;;24.02;39.30;102100.75;5061466;28;46376;-72
2022/10/12 10:59:52;;;;;;;;;1.33;1.00;;;;;24.14;39.69;102106.59;5055575;27;45379;-72
2022/10/12 11:02:41;;;;;;;;;5.00;2.00;;;;;24.16;39.50;102105.44;5070965;27;45428;-72
2022/10/12 11:05:09;;;;;;;;;3.67;3.00;;;;;24.17;39.53;102111.56;5055942;27;45510;-73
2022/10/12 11:07:48;;;;;;;;;4.00;4.00;;;;;24.18;39.54;102113.22;5063364;27;46131;-72
2022/10/12 11:10:29;;;;;;;;;3.33;2.33;;;;;24.19;39.80;102098.94;5067859;27;45443;-72
2022/10/12 11:13:28;;;;;;;;;5.33;4.00;;;;;24.11;39.48;102086.47;5075222;28;45278;-72
2022/10/12 11:16:12;;;;;;;;;5.67;5.00;;;;;24.20;39.88;102099.78;5076111;28;45432;-74
2022/10/12 11:18:41;;;;;;;;;3.00;3.00;;;;;24.21;39.38;102099.59;5075591;27;45586;-73
2022/10/12 11:21:14;;;;;;;;;4.00;4.00;;;;;24.20;39.25;102089.94;5075737;28;45493;-73
2022/10/12 11:23:49;;;;;;;;;4.00;4.00;;;;;24.23;39.83;102094.94;5075803;28;45398;-73
2022/10/12 11:27:00;;;;;;;;;4.00;2.33;;;;;24.23;39.45;102110.91;5074788;27;45474;-73
2022/10/12 11:29:26;;;;;;;;;5.00;4.00;;;;;24.23;39.44;102104.75;5052997;28;46240;-72
2022/10/12 11:32:02;;;;;;;;;7.33;4.00;;;;;24.17;39.47;102101.75;5052308;28;45550;-72
2022/10/12 11:34:35;;;;;;;;;3.00;3.00;;;;;24.24;39.17;102109.91;5053488;28;45353;-72